Time;durP1;ratioP1;P1;durP2;ratioP2;P2;SDS_P1;SDS_P2;PMS_P1;PMS_P2;Temp;Humidity;BMP_temperature;BMP_pressure;BME280_temperature;BME280_humidity;BME280_pressure;Samples;Min_cycle;Max_cycle;Signal;HPM_P1;HPM_P2
2022/07/24 00:01:37;;;;;;;27.17;7.88;;;;;;;23.37;54.16;94986.19;4987174;28;20251;-79
2022/07/24 00:04:03;;;;;;;15.70;7.13;;;;;;;23.12;53.87;94983.81;4983114;28;20677;-78
2022/07/24 00:06:29;;;;;;;12.77;6.53;;;;;;;23.11;54.93;94991.06;4970405;28;20209;-78
2022/07/24 00:08:54;;;;;;;17.13;6.75;;;;;;;23.18;54.65;94983.44;4992564;28;20260;-78
2022/07/24 00:11:20;;;;;;;16.27;8.48;;;;;;;23.04;54.64;94963.75;4972486;28;20187;-78
2022/07/24 00:13:45;;;;;;;16.50;8.88;;;;;;;23.13;54.45;94978.16;4998684;28;20188;-78
2022/07/24 00:16:11;;;;;;;17.80;6.82;;;;;;;23.15;54.61;94981.34;4987154;28;20192;-79
2022/07/24 00:18:36;;;;;;;17.27;7.15;;;;;;;23.23;54.43;94987.97;4988474;28;20192;-79
2022/07/24 00:21:02;;;;;;;22.83;6.45;;;;;;;23.18;54.24;94979.97;4985624;28;20175;-79
2022/07/24 00:23:27;;;;;;;11.00;6.63;;;;;;;23.05;54.48;94956.50;4970440;28;20197;-79
2022/07/24 00:25:53;;;;;;;11.13;6.90;;;;;;;23.20;54.47;94988.53;4993198;28;20205;-79
2022/07/24 00:28:19;;;;;;;21.58;7.20;;;;;;;23.11;54.43;94969.56;4994669;28;20204;-78
2022/07/24 00:30:45;;;;;;;15.00;6.45;;;;;;;22.97;54.63;94967.88;4991169;28;20215;-79
2022/07/24 00:33:11;;;;;;;14.68;6.18;;;;;;;23.03;55.26;94975.56;4982157;28;20270;-78
2022/07/24 00:35:36;;;;;;;30.77;7.50;;;;;;;23.04;55.77;94984.44;4984002;28;20504;-78
2022/07/24 00:38:02;;;;;;;19.13;7.38;;;;;;;22.93;55.67;94973.78;4966199;28;20181;-79
2022/07/24 00:40:28;;;;;;;9.90;5.88;;;;;;;22.82;55.74;94969.63;4983181;28;20181;-78
2022/07/24 00:42:54;;;;;;;15.98;7.40;;;;;;;22.91;55.62;94983.25;4991066;28;20211;-78
2022/07/24 00:45:19;;;;;;;16.58;6.75;;;;;;;22.97;55.69;94983.97;4991406;28;20193;-78
2022/07/24 00:47:45;;;;;;;10.52;5.93;;;;;;;22.93;55.65;94989.91;4991974;28;20695;-78
2022/07/24 00:50:11;;;;;;;17.55;6.47;;;;;;;22.90;56.01;94979.75;4992083;28;20207;-78
2022/07/24 00:52:37;;;;;;;11.57;6.60;;;;;;;22.92;55.99;94985.63;4992021;28;20227;-78
2022/07/24 00:55:04;;;;;;;8.25;6.28;;;;;;;22.96;55.63;94983.19;4990926;28;20209;-78
2022/07/24 00:57:30;;;;;;;12.95;6.18;;;;;;;22.92;55.86;94980.25;4998313;28;20231;-78
2022/07/24 00:59:55;;;;;;;23.88;7.47;;;;;;;22.89;55.71;94972.78;5011249;28;20181;-77
2022/07/24 01:02:21;;;;;;;21.83;8.52;;;;;;;22.87;55.21;94977.63;5007000;28;20205;-77
2022/07/24 01:04:47;;;;;;;13.57;6.63;;;;;;;22.91;55.87;94980.56;4997472;28;20275;-77
2022/07/24 01:07:13;;;;;;;18.45;7.68;;;;;;;22.78;56.31;94990.06;5002422;28;20212;-77
2022/07/24 01:09:39;;;;;;;18.00;7.72;;;;;;;22.67;56.44;94985.03;4999704;28;20223;-77
2022/07/24 01:12:05;;;;;;;18.73;7.55;;;;;;;22.57;56.49;94967.94;4990833;28;20213;-77
2022/07/24 01:14:33;;;;;;;16.98;7.53;;;;;;;22.58;56.77;94974.94;5001688;28;20180;-77
2022/07/24 01:16:59;;;;;;;14.25;7.53;;;;;;;22.60;56.11;94977.31;5014648;28;20219;-77
2022/07/24 01:19:24;;;;;;;28.77;8.52;;;;;;;22.48;55.98;94968.88;5011791;28;20194;-77
2022/07/24 01:21:52;;;;;;;18.75;7.88;;;;;;;22.49;55.98;94957.03;5008498;28;20259;-77
2022/07/24 01:24:19;;;;;;;15.25;7.00;;;;;;;22.57;55.78;94967.19;5014818;28;20196;-77
2022/07/24 01:26:44;;;;;;;19.80;7.70;;;;;;;22.55;56.15;94970.13;4996049;28;20184;-77
2022/07/24 01:29:11;;;;;;;12.95;7.05;;;;;;;22.41;56.60;94952.28;4995354;28;20259;-77
2022/07/24 01:31:37;;;;;;;17.75;7.75;;;;;;;22.57;56.64;94970.63;5000834;28;20176;-77
2022/07/24 01:34:03;;;;;;;18.25;8.02;;;;;;;22.49;56.30;94957.03;5006447;28;20188;-77
2022/07/24 01:36:28;;;;;;;21.85;7.57;;;;;;;22.51;56.29;94958.34;5013781;28;20656;-77
2022/07/24 01:38:54;;;;;;;16.55;7.28;;;;;;;22.47;56.92;94957.34;5010350;28;20255;-77
2022/07/24 01:41:19;;;;;;;15.93;7.47;;;;;;;22.50;57.33;94970.16;4977110;28;20192;-77
2022/07/24 01:43:45;;;;;;;14.05;6.88;;;;;;;22.41;56.92;94960.31;4994660;28;20229;-77
2022/07/24 01:46:11;;;;;;;12.77;6.90;;;;;;;22.34;57.32;94954.50;4977201;28;20188;-77
2022/07/24 01:48:38;;;;;;;22.02;9.00;;;;;;;22.24;57.43;94949.22;4994651;28;20177;-77
2022/07/24 01:51:04;;;;;;;20.00;10.13;;;;;;;22.31;57.43;94960.44;4994401;28;20185;-77
2022/07/24 01:53:29;;;;;;;22.88;10.30;;;;;;;22.30;57.47;94953.47;5011670;28;20180;-77
2022/07/24 01:55:54;;;;;;;21.30;9.00;;;;;;;22.31;57.22;94961.25;5000954;28;20235;-77
2022/07/24 01:58:20;;;;;;;20.00;8.07;;;;;;;22.15;57.58;94931.03;5014197;28;20184;-77
2022/07/24 02:00:46;;;;;;;19.90;9.88;;;;;;;22.29;57.46;94957.22;5014035;28;20180;-77
2022/07/24 02:03:12;;;;;;;17.90;7.97;;;;;;;22.21;57.55;94947.91;5013793;28;20208;-77
2022/07/24 02:05:37;;;;;;;15.93;7.30;;;;;;;22.24;57.75;94949.22;5013937;28;20190;-77
2022/07/24 02:08:03;;;;;;;19.52;7.32;;;;;;;22.08;57.57;94938.63;5014001;28;20180;-77
2022/07/24 02:10:28;;;;;;;15.63;8.23;;;;;;;22.13;57.71;94954.69;5013714;28;20259;-77
2022/07/24 02:12:55;;;;;;;19.42;8.02;;;;;;;22.05;58.18;94955.28;5013762;28;20204;-77
2022/07/24 02:15:21;;;;;;;14.55;7.68;;;;;;;21.96;58.21;94948.88;5013551;28;20184;-77
2022/07/24 02:17:48;;;;;;;18.58;7.93;;;;;;;22.00;58.27;94949.94;5013516;28;20172;-77
2022/07/24 02:20:14;;;;;;;18.73;8.00;;;;;;;21.93;58.30;94949.44;5013531;28;20191;-77
2022/07/24 02:22:40;;;;;;;21.02;8.05;;;;;;;21.92;58.26;94955.88;5012377;28;20199;-77
2022/07/24 02:25:06;;;;;;;16.90;8.40;;;;;;;21.95;58.33;94955.31;5013338;28;20185;-77
2022/07/24 02:27:32;;;;;;;12.98;7.35;;;;;;;21.94;58.40;94963.63;5013331;28;20179;-77
2022/07/24 02:29:57;;;;;;;32.25;15.50;;;;;;;21.78;58.78;94945.00;5013640;28;20172;-77
2022/07/24 02:32:23;;;;;;;14.93;8.35;;;;;;;21.88;58.72;94957.50;5013366;28;20859;-77
2022/07/24 02:34:48;;;;;;;12.13;6.53;;;;;;;21.88;58.96;94959.41;5013312;28;20263;-77
2022/07/24 02:37:14;;;;;;;18.27;7.07;;;;;;;21.90;58.77;94960.69;5013362;28;20621;-77
2022/07/24 02:39:39;;;;;;;15.23;7.47;;;;;;;21.84;58.95;94968.00;5013413;28;20180;-77
2022/07/24 02:42:05;;;;;;;17.13;8.77;;;;;;;21.76;59.28;94962.41;5013192;28;20199;-77
2022/07/24 02:44:30;;;;;;;19.40;8.63;;;;;;;21.63;59.18;94961.13;5013121;28;20553;-77
2022/07/24 02:46:56;;;;;;;18.80;8.43;;;;;;;21.57;59.07;94964.13;5013242;28;20255;-77
2022/07/24 02:49:21;;;;;;;43.33;20.38;;;;;;;21.46;59.43;94939.28;5013175;28;20180;-77
2022/07/24 02:51:47;;;;;;;19.67;9.68;;;;;;;21.65;59.42;94960.88;5013040;28;20634;-77
2022/07/24 02:54:12;;;;;;;17.90;8.55;;;;;;;21.59;58.80;94938.66;5012858;28;20653;-76
2022/07/24 02:56:38;;;;;;;21.30;8.90;;;;;;;21.73;59.07;94965.63;5012837;28;20219;-77
2022/07/24 02:59:03;;;;;;;12.60;8.30;;;;;;;21.73;59.14;94954.91;5013170;28;20569;-77
2022/07/24 03:01:29;;;;;;;18.73;7.78;;;;;;;21.68;59.03;94950.41;5013023;28;20267;-77
2022/07/24 03:03:54;;;;;;;14.68;7.40;;;;;;;21.80;59.31;94963.44;5013538;28;20192;-77
2022/07/24 03:06:20;;;;;;;17.50;6.80;;;;;;;21.68;59.10;94931.66;5012787;28;20176;-77
2022/07/24 03:08:45;;;;;;;20.80;7.10;;;;;;;21.80;59.26;94958.09;5021653;28;20188;-76
2022/07/24 03:11:10;;;;;;;15.55;6.53;;;;;;;21.78;59.54;94958.38;5012713;28;20199;-77
2022/07/24 03:13:36;;;;;;;14.80;7.22;;;;;;;21.78;58.91;94960.25;5012627;28;20604;-76
2022/07/24 03:16:01;;;;;;;9.48;6.28;;;;;;;21.71;58.63;94955.19;5012629;28;20641;-77
2022/07/24 03:18:26;;;;;;;20.00;7.53;;;;;;;21.76;58.99;94965.09;5012422;28;20188;-76
2022/07/24 03:20:52;;;;;;;13.13;7.25;;;;;;;21.77;58.87;94972.06;5012066;28;20263;-77
2022/07/24 03:23:17;;;;;;;13.50;6.82;;;;;;;21.62;58.91;94945.38;5012459;28;20231;-77
2022/07/24 03:25:43;;;;;;;15.63;6.55;;;;;;;21.72;59.27;94966.72;5012517;28;20188;-77
2022/07/24 03:28:08;;;;;;;24.40;9.02;;;;;;;21.57;59.29;94972.97;5012310;28;20294;-77
2022/07/24 03:30:34;;;;;;;31.02;8.30;;;;;;;21.46;60.08;94963.38;5012405;28;20211;-77
2022/07/24 03:32:59;;;;;;;29.25;14.65;;;;;;;21.49;59.72;94956.69;5012483;28;20284;-77
2022/07/24 03:35:25;;;;;;;22.20;9.98;;;;;;;21.55;59.93;94960.91;5012502;28;20188;-77
2022/07/24 03:37:50;;;;;;;20.73;7.55;;;;;;;21.60;59.53;94971.63;5012318;28;20292;-77
2022/07/24 03:40:16;;;;;;;19.77;8.82;;;;;;;21.63;59.90;94974.53;5012183;28;20196;-77
2022/07/24 03:42:41;;;;;;;36.13;10.23;;;;;;;21.65;60.03;94958.19;5012022;28;20192;-77
2022/07/24 03:45:07;;;;;;;28.17;9.23;;;;;;;21.75;59.70;94968.84;5012159;28;20181;-76
2022/07/24 03:47:32;;;;;;;14.77;7.63;;;;;;;21.71;59.74;94973.94;5012283;28;20199;-77
2022/07/24 03:49:58;;;;;;;17.15;8.13;;;;;;;21.64;60.07;94962.75;5012005;28;20241;-77
2022/07/24 03:52:24;;;;;;;19.17;6.95;;;;;;;21.51;59.93;94946.50;4994639;28;20214;-77
2022/07/24 03:54:50;;;;;;;18.63;7.32;;;;;;;21.61;59.47;94951.81;5012617;28;20292;-77
2022/07/24 03:57:16;;;;;;;12.20;5.95;;;;;;;21.73;59.46;94960.28;5012090;28;20220;-77
2022/07/24 03:59:41;;;;;;;13.02;7.03;;;;;;;21.83;59.76;94965.59;4994737;28;20196;-77
2022/07/24 04:02:07;;;;;;;17.95;7.63;;;;;;;21.95;59.68;94960.69;5012300;28;20196;-77
2022/07/24 04:04:32;;;;;;;16.95;7.10;;;;;;;22.09;59.38;94960.88;5012224;28;20534;-77
2022/07/24 04:06:57;;;;;;;12.82;7.53;;;;;;;22.19;59.35;94966.97;5012145;28;20168;-77
2022/07/24 04:09:23;;;;;;;18.73;7.45;;;;;;;22.17;59.79;94955.72;5012044;28;20180;-77
2022/07/24 04:11:48;;;;;;;12.93;7.45;;;;;;;22.37;59.34;94970.84;5012228;28;20223;-77
2022/07/24 04:14:14;;;;;;;18.45;6.78;;;;;;;22.54;59.35;94973.09;5012121;28;20176;-77
2022/07/24 04:16:39;;;;;;;16.15;7.30;;;;;;;22.60;58.36;94955.84;5012122;28;20220;-77
2022/07/24 04:19:05;;;;;;;17.88;7.63;;;;;;;22.81;57.98;94969.91;5011996;28;20172;-77
2022/07/24 04:21:30;;;;;;;15.18;8.90;;;;;;;22.76;56.86;94945.78;5012003;28;20186;-77
2022/07/24 04:23:55;;;;;;;22.10;9.15;;;;;;;22.99;56.28;94971.88;5011999;28;20176;-77
2022/07/24 04:26:21;;;;;;;21.38;11.10;;;;;;;23.03;55.78;94950.59;5012315;28;20180;-77
2022/07/24 04:28:46;;;;;;;22.92;10.38;;;;;;;23.29;55.04;94968.81;5012060;28;20259;-78
2022/07/24 04:31:12;;;;;;;24.55;8.23;;;;;;;23.56;54.71;94976.31;5011916;28;20263;-77
2022/07/24 04:33:37;;;;;;;24.45;12.23;;;;;;;23.72;53.82;94979.59;5011912;28;20172;-77
2022/07/24 04:36:04;;;;;;;26.05;11.93;;;;;;;23.73;54.02;94961.56;5011760;28;20695;-77
2022/07/24 04:38:32;;;;;;;31.52;15.75;;;;;;;23.96;53.59;94982.19;5011272;28;20188;-77
2022/07/24 04:40:57;;;;;;;28.05;12.43;;;;;;;24.02;53.76;94964.91;5011876;28;20176;-77
2022/07/24 04:43:22;;;;;;;28.20;12.25;;;;;;;24.37;53.90;94979.72;5011420;28;20196;-77
2022/07/24 04:45:48;;;;;;;24.75;9.38;;;;;;;24.60;52.74;94986.88;5011072;28;20179;-77
2022/07/24 04:48:13;;;;;;;37.88;13.45;;;;;;;24.74;50.58;94985.00;5011515;28;20184;-77
2022/07/24 04:50:39;;;;;;;22.40;10.25;;;;;;;24.95;49.94;94972.00;4994230;28;20175;-77
2022/07/24 04:53:04;;;;;;;36.40;9.63;;;;;;;25.36;49.47;94979.28;5011542;28;20645;-77
2022/07/24 04:55:29;;;;;;;23.50;9.25;;;;;;;25.70;48.31;94982.38;5007903;28;20228;-78
2022/07/24 04:57:55;;;;;;;17.52;8.38;;;;;;;26.02;47.76;94969.81;4992067;28;20666;-77
2022/07/24 05:00:20;;;;;;;17.55;8.73;;;;;;;26.46;47.00;94980.66;4992096;28;20249;-77
2022/07/24 05:02:46;;;;;;;17.75;7.53;;;;;;;26.80;44.76;94984.69;4991810;28;20252;-78
2022/07/24 05:05:11;;;;;;;17.33;7.60;;;;;;;27.04;44.26;94963.53;4991823;28;20613;-78
2022/07/24 05:07:38;;;;;;;14.38;7.43;;;;;;;27.54;43.42;94988.38;4991908;28;20598;-77
2022/07/24 05:10:05;;;;;;;14.98;7.63;;;;;;;27.90;42.22;94993.53;4992195;28;20200;-78
2022/07/24 05:12:30;;;;;;;13.57;7.63;;;;;;;28.15;40.79;94998.19;4991892;28;20162;-78
2022/07/24 05:14:56;;;;;;;11.80;7.40;;;;;;;28.62;41.18;94992.16;4991927;28;20165;-78
2022/07/24 05:17:21;;;;;;;14.85;8.23;;;;;;;29.02;40.61;95006.28;4991890;28;20663;-78
2022/07/24 05:19:47;;;;;;;12.75;6.57;;;;;;;29.51;40.79;95005.63;4991363;28;20181;-78
2022/07/24 05:22:12;;;;;;;13.30;6.93;;;;;;;30.02;38.72;95004.56;4991858;28;20284;-78
2022/07/24 05:24:37;;;;;;;23.00;7.90;;;;;;;30.48;37.20;94991.09;4991913;28;20265;-78
2022/07/24 05:27:03;;;;;;;16.30;6.70;;;;;;;30.89;35.83;94993.75;4992049;28;20875;-78
2022/07/24 05:29:28;;;;;;;15.25;7.13;;;;;;;31.21;36.51;94991.38;4991962;28;20582;-79
2022/07/24 05:31:54;;;;;;;14.98;6.53;;;;;;;31.54;33.00;94997.53;4991929;28;20641;-78
2022/07/24 05:34:23;;;;;;;14.15;6.45;;;;;;;31.78;32.49;94997.53;4991826;28;20656;-78
2022/07/24 05:36:48;;;;;;;20.02;6.45;;;;;;;31.91;31.36;94992.09;4992086;28;20643;-79
2022/07/24 05:39:14;;;;;;;14.45;6.80;;;;;;;32.25;31.15;94983.41;4991964;28;20200;-80
2022/07/24 05:41:40;;;;;;;15.98;8.55;;;;;;;32.66;30.61;94984.97;4991935;28;20185;-80
2022/07/24 05:44:05;;;;;;;14.02;8.98;;;;;;;32.70;31.24;94998.72;4992074;28;20191;-79
2022/07/24 05:46:31;;;;;;;14.25;9.07;;;;;;;32.39;31.51;94989.28;4974769;28;20193;-79
2022/07/24 05:48:56;;;;;;;19.08;8.00;;;;;;;32.20;31.82;94983.63;4992134;28;20200;-79
2022/07/24 05:51:21;;;;;;;19.23;10.27;;;;;;;32.48;32.65;94984.47;4991749;28;20162;-79
2022/07/24 05:53:47;;;;;;;15.25;7.40;;;;;;;32.70;31.24;94976.91;4992011;28;20185;-79
2022/07/24 05:56:12;;;;;;;15.00;7.13;;;;;;;33.04;30.18;94987.16;5000980;28;20258;-79
2022/07/24 05:58:38;;;;;;;16.52;6.65;;;;;;;32.78;30.80;94981.44;5014681;28;20191;-79
2022/07/24 06:01:03;;;;;;;28.17;7.05;;;;;;;32.29;31.88;94978.06;5014800;28;20180;-79
2022/07/24 06:03:28;;;;;;;16.05;7.00;;;;;;;32.31;32.32;94976.56;5014878;28;20231;-79
2022/07/24 06:05:54;;;;;;;15.93;7.13;;;;;;;32.43;32.40;94986.66;5014925;28;20260;-79
2022/07/24 06:08:20;;;;;;;18.23;11.30;;;;;;;32.52;32.74;94995.50;5014509;28;20267;-79
2022/07/24 06:10:45;;;;;;;14.63;7.60;;;;;;;32.57;32.84;94996.03;5014952;28;20259;-79
2022/07/24 06:13:10;;;;;;;14.98;6.80;;;;;;;32.47;32.96;94961.06;5014886;28;20169;-79
2022/07/24 06:15:36;;;;;;;16.38;7.97;;;;;;;32.63;32.49;95001.22;5014795;28;20716;-78
2022/07/24 06:18:01;;;;;;;24.40;8.10;;;;;;;32.43;31.96;94995.63;5014382;28;20187;-79
2022/07/24 06:20:27;;;;;;;14.57;7.57;;;;;;;32.20;32.48;94970.81;5013983;28;20180;-79
2022/07/24 06:22:52;;;;;;;21.20;7.72;;;;;;;32.38;33.03;94982.22;4995950;28;20215;-78
2022/07/24 06:25:18;;;;;;;13.48;6.30;;;;;;;32.25;32.81;94972.53;5013718;28;20184;-79
2022/07/24 06:27:48;;;;;;;15.18;7.55;;;;;;;32.31;32.79;94976.56;4995947;28;20176;-79
2022/07/24 06:30:18;;;;;;;25.58;12.05;;;;;;;32.21;32.22;94972.41;5014330;28;20184;-79
2022/07/24 06:32:44;;;;;;;14.63;6.32;;;;;;;32.36;32.87;94972.81;5014212;28;20172;-79
2022/07/24 06:35:10;;;;;;;18.52;7.35;;;;;;;32.40;32.67;94977.22;4996354;28;20239;-79
2022/07/24 06:37:35;;;;;;;11.32;6.38;;;;;;;32.55;33.21;94972.97;5013974;28;20181;-79
2022/07/24 06:40:00;;;;;;;16.75;6.50;;;;;;;32.74;32.96;94969.63;5013948;28;20535;-79
2022/07/24 06:42:26;;;;;;;17.48;7.68;;;;;;;32.84;33.00;94959.00;5013591;28;20287;-79
2022/07/24 06:44:51;;;;;;;16.63;7.53;;;;;;;32.71;32.77;94964.84;5013992;28;20180;-79
2022/07/24 06:47:17;;;;;;;10.35;6.85;;;;;;;32.03;33.54;94938.34;5013988;28;20179;-79
2022/07/24 06:49:42;;;;;;;17.35;7.93;;;;;;;32.05;35.98;94957.88;5013818;28;20604;-80
2022/07/24 06:52:09;;;;;;;12.45;5.93;;;;;;;32.39;34.88;94950.31;5013878;28;20318;-79
2022/07/24 06:54:34;;;;;;;16.60;7.20;;;;;;;32.64;34.00;94946.34;5013766;28;20177;-79
2022/07/24 06:56:59;;;;;;;14.60;6.35;;;;;;;32.85;34.88;94944.22;5013521;28;20222;-79
2022/07/24 06:59:25;;;;;;;15.32;7.47;;;;;;;33.06;33.37;94948.63;5014030;28;20618;-79
2022/07/24 07:01:51;;;;;;;10.63;6.80;;;;;;;32.79;33.17;94944.78;5013198;28;20192;-79
2022/07/24 07:04:17;;;;;;;11.50;5.90;;;;;;;32.66;34.71;94948.72;5012424;28;20180;-78
2022/07/24 07:06:42;;;;;;;19.92;7.70;;;;;;;32.94;34.19;94944.03;5010776;28;20177;-78
2022/07/24 07:09:07;;;;;;;13.02;6.80;;;;;;;33.37;32.07;94953.34;5012613;28;20188;-78
2022/07/24 07:11:33;;;;;;;13.35;6.65;;;;;;;33.49;33.32;94943.09;5013057;28;20172;-78
2022/07/24 07:13:58;;;;;;;19.70;7.38;;;;;;;33.88;33.70;94946.75;5013267;28;20176;-78
2022/07/24 07:16:24;;;;;;;14.88;6.65;;;;;;;34.23;30.81;94948.66;5013228;28;20247;-78
2022/07/24 07:18:49;;;;;;;15.05;7.18;;;;;;;34.56;30.18;94948.19;5012993;28;20180;-78
2022/07/24 07:21:14;;;;;;;11.95;6.20;;;;;;;34.78;31.09;94944.72;5012922;28;20193;-78
2022/07/24 07:23:40;;;;;;;13.18;6.35;;;;;;;34.98;29.66;94942.75;5012942;28;20724;-79
2022/07/24 07:26:05;;;;;;;15.07;6.50;;;;;;;35.02;29.90;94941.66;5012862;28;20556;-79
2022/07/24 07:28:31;;;;;;;11.98;6.72;;;;;;;35.24;28.94;94947.53;5013128;28;20176;-79
2022/07/24 07:30:56;;;;;;;12.60;6.35;;;;;;;35.35;28.60;94943.81;5012928;28;20256;-79
2022/07/24 07:33:21;;;;;;;16.27;6.38;;;;;;;35.40;28.13;94937.22;5012747;28;20172;-79
2022/07/24 07:35:47;;;;;;;16.20;6.57;;;;;;;35.28;26.81;94953.88;5012588;28;20173;-79
2022/07/24 07:38:13;;;;;;;18.48;6.43;;;;;;;34.68;28.41;94951.53;4995407;28;20265;-78
2022/07/24 07:40:38;;;;;;;15.88;6.75;;;;;;;34.68;28.74;94946.06;5012745;28;20230;-78
2022/07/24 07:43:03;;;;;;;15.23;7.20;;;;;;;34.99;29.76;94936.13;5012368;28;20180;-78
2022/07/24 07:45:29;;;;;;;14.38;6.88;;;;;;;35.10;27.93;94937.09;5012802;28;20180;-80
2022/07/24 07:47:54;;;;;;;15.20;6.47;;;;;;;35.35;28.78;94943.81;4995058;28;20176;-80
2022/07/24 07:50:20;;;;;;;11.35;6.82;;;;;;;35.53;26.79;94922.19;5012753;28;20172;-80
2022/07/24 07:52:45;;;;;;;17.00;6.35;;;;;;;35.64;26.59;94922.31;5012988;28;20164;-80
2022/07/24 07:55:10;;;;;;;14.10;7.00;;;;;;;35.71;26.36;94928.72;5012807;28;20191;-81
2022/07/24 07:57:37;;;;;;;12.80;6.32;;;;;;;35.53;26.45;94890.09;5012992;28;20642;-81
2022/07/24 08:00:03;;;;;;;13.50;6.57;;;;;;;35.86;26.81;94930.53;5013209;28;20160;-81
2022/07/24 08:02:29;;;;;;;19.05;6.57;;;;;;;35.96;28.10;94929.09;5012487;28;20662;-83
2022/07/24 08:04:55;;;;;;;14.80;6.88;;;;;;;36.15;27.18;94923.44;5013024;28;20637;-80
2022/07/24 08:07:20;;;;;;;12.93;6.43;;;;;;;36.31;26.56;94941.72;5012539;28;20947;-78
2022/07/24 08:09:46;;;;;;;12.52;6.68;;;;;;;36.29;25.52;94944.84;5012314;28;20172;-81
2022/07/24 08:12:11;;;;;;;19.00;7.05;;;;;;;35.91;27.54;94938.41;5012626;28;20164;-79
2022/07/24 08:14:37;;;;;;;15.40;6.93;;;;;;;35.98;26.79;94937.72;5011823;28;20259;-79
2022/07/24 08:17:03;;;;;;;21.25;7.75;;;;;;;35.81;26.59;94924.56;5012458;28;20251;-80
2022/07/24 08:19:28;;;;;;;16.50;6.97;;;;;;;35.51;28.02;94913.53;5012384;28;20165;-79
2022/07/24 08:21:54;;;;;;;16.50;6.75;;;;;;;35.86;28.30;94937.97;5012217;28;20200;-82
2022/07/24 08:24:22;;;;;;;17.45;6.88;;;;;;;36.07;26.69;94945.66;4994739;28;20185;-79
2022/07/24 08:26:48;;;;;;;22.25;7.95;;;;;;;36.10;26.15;94929.28;5015638;28;20164;-79
2022/07/24 08:29:14;;;;;;;16.15;6.93;;;;;;;36.43;26.31;94927.75;5031817;28;20172;-79
2022/07/24 08:31:39;;;;;;;15.05;6.70;;;;;;;36.63;25.95;94935.44;5031300;28;20179;-79
2022/07/24 08:34:05;;;;;;;17.40;6.40;;;;;;;36.54;25.54;94943.19;5031252;28;20547;-79
2022/07/24 08:36:30;;;;;;;19.38;7.45;;;;;;;36.46;26.29;94941.50;5031226;28;20164;-79
2022/07/24 08:38:56;;;;;;;14.77;6.80;;;;;;;36.26;26.20;94946.34;5022848;28;20181;-78
2022/07/24 08:41:21;;;;;;;16.27;7.15;;;;;;;35.92;27.06;94940.00;4985520;28;20183;-79
2022/07/24 08:43:47;;;;;;;13.65;6.47;;;;;;;35.57;27.55;94931.22;5004806;28;20196;-76
2022/07/24 08:46:14;;;;;;;15.95;6.75;;;;;;;35.01;28.53;94936.53;5001072;28;20183;-78
2022/07/24 08:48:43;;;;;;;15.63;6.68;;;;;;;34.60;29.67;94936.16;5006455;28;20309;-78
2022/07/24 08:51:09;;;;;;;17.38;7.90;;;;;;;34.23;29.56;94926.78;5009936;28;20215;-77
2022/07/24 08:53:34;;;;;;;11.23;6.93;;;;;;;34.08;30.76;94926.47;5001771;28;20662;-77
2022/07/24 08:56:00;;;;;;;14.23;7.13;;;;;;;34.07;30.64;94927.66;5004989;28;21039;-79
2022/07/24 08:58:25;;;;;;;17.75;7.80;;;;;;;33.72;30.26;94905.00;5007716;28;20222;-79
2022/07/24 09:00:51;;;;;;;21.17;7.25;;;;;;;33.75;31.58;94928.88;5013852;28;20173;-76
2022/07/24 09:03:16;;;;;;;12.55;7.25;;;;;;;33.81;32.40;94927.47;4999859;28;20594;-78
2022/07/24 09:05:58;;;;;;;16.13;7.40;;;;;;;33.91;31.31;94912.44;5003659;28;20188;-78
2022/07/24 09:08:24;;;;;;;13.55;6.53;;;;;;;34.18;31.66;94927.84;5005668;28;20203;-78
2022/07/24 09:11:04;;;;;;;20.85;8.38;;;;;;;34.21;31.88;94901.75;4997475;28;20204;-79
2022/07/24 09:16:25;;;;;;;14.30;7.30;;;;;;;34.33;31.46;94913.38;4983978;28;20619;-79
2022/07/24 09:19:13;;;;;;;12.73;7.47;;;;;;;34.33;31.54;94916.13;5005864;28;20287;-79
2022/07/24 09:21:40;;;;;;;27.10;8.65;;;;;;;34.13;32.71;94864.50;5006788;28;20748;-79
2022/07/24 09:24:15;;;;;;;11.93;7.03;;;;;;;34.84;30.63;94912.41;5006480;28;20196;-79
2022/07/24 09:26:51;;;;;;;16.67;8.20;;;;;;;35.21;30.22;94913.41;5007835;28;20573;-78
2022/07/24 09:29:18;;;;;;;15.65;8.00;;;;;;;35.34;30.25;94894.88;5008402;28;20188;-78
2022/07/24 09:31:52;;;;;;;21.05;8.07;;;;;;;35.76;30.56;94913.91;5013725;28;20188;-78
2022/07/24 09:34:17;;;;;;;16.92;7.88;;;;;;;35.91;30.41;94904.72;5009891;28;20250;-78
2022/07/24 09:36:58;;;;;;;15.48;7.72;;;;;;;36.03;26.54;94912.75;5012816;28;20168;-78
2022/07/24 09:39:25;;;;;;;8.30;5.93;;;;;;;35.99;28.35;94911.88;5024852;28;20715;-78
2022/07/24 09:41:55;;;;;;;16.85;6.47;;;;;;;36.15;26.80;94915.22;5031020;28;20621;-78
2022/07/24 09:44:23;;;;;;;11.23;5.53;;;;;;;36.16;25.29;94911.31;5010888;28;20198;-79
2022/07/24 09:46:58;;;;;;;13.10;5.60;;;;;;;35.97;25.94;94908.75;5020465;28;20235;-79
2022/07/24 09:49:25;;;;;;;10.32;6.03;;;;;;;35.95;25.08;94902.84;5013971;28;20196;-79
2022/07/24 09:52:32;;;;;;;17.10;5.80;;;;;;;35.93;25.72;94894.19;5017574;28;20648;-79
2022/07/24 09:54:57;;;;;;;11.27;5.32;;;;;;;36.15;25.84;94898.78;5008081;28;20687;-79
2022/07/24 09:57:27;;;;;;;15.13;5.55;;;;;;;36.41;24.80;94906.19;5017561;28;20311;-79
2022/07/24 09:59:54;;;;;;;13.75;5.50;;;;;;;36.55;25.54;94894.56;5021191;28;20184;-79
2022/07/24 10:02:22;;;;;;;13.20;6.10;;;;;;;36.66;24.78;94895.50;5007569;28;20281;-79
2022/07/24 10:04:49;;;;;;;12.35;5.93;;;;;;;36.83;24.99;94889.41;5013567;28;20193;-79
2022/07/24 10:07:18;;;;;;;10.85;5.70;;;;;;;37.01;25.32;94882.13;5000233;28;20622;-79
2022/07/24 10:09:46;;;;;;;8.48;5.95;;;;;;;37.03;25.58;94884.47;5012484;28;20183;-79
2022/07/24 10:12:20;;;;;;;9.32;5.38;;;;;;;37.21;24.93;94890.16;5011087;28;20301;-79
2022/07/24 10:14:48;;;;;;;14.30;6.93;;;;;;;37.23;24.69;94871.34;5007506;28;20176;-79
2022/07/24 10:17:15;;;;;;;14.48;5.80;;;;;;;37.27;22.97;94892.19;5010670;28;20195;-79
2022/07/24 10:19:47;;;;;;;5.88;4.38;;;;;;;37.12;22.90;94889.66;5019318;28;20275;-79
2022/07/24 10:22:23;;;;;;;9.43;6.13;;;;;;;37.19;25.43;94882.28;5020512;28;20196;-79
2022/07/24 10:25:19;;;;;;;9.77;5.10;;;;;;;37.31;23.13;94884.75;5020894;28;20176;-79
2022/07/24 10:27:51;;;;;;;13.20;6.40;;;;;;;37.41;23.97;94886.00;4991728;28;20186;-79
2022/07/24 10:30:17;;;;;;;16.80;5.45;;;;;;;37.56;23.14;94876.66;5007544;28;20184;-79
2022/07/24 10:32:45;;;;;;;12.43;5.93;;;;;;;37.48;22.82;94866.81;5018407;28;20624;-79
2022/07/24 10:35:21;;;;;;;10.38;5.13;;;;;;;37.57;24.20;94869.22;5002431;28;20177;-79
2022/07/24 10:38:12;;;;;;;9.68;5.03;;;;;;;37.60;22.93;94857.50;5013249;28;20250;-79
2022/07/24 10:40:51;;;;;;;12.48;5.50;;;;;;;37.52;23.37;94870.38;5025199;28;20172;-79
2022/07/24 10:43:21;;;;;;;8.45;5.53;;;;;;;37.27;22.37;94858.44;5009897;28;20204;-79
2022/07/24 10:45:53;;;;;;;9.55;5.50;;;;;;;37.13;23.54;94869.25;5014894;28;20208;-79
2022/07/24 10:48:22;;;;;;;8.90;5.22;;;;;;;37.10;24.59;94865.34;5017174;28;20310;-79
2022/07/24 10:50:56;;;;;;;11.10;6.38;;;;;;;36.94;24.88;94865.56;5006284;28;20196;-79
2022/07/24 10:53:23;;;;;;;11.70;4.88;;;;;;;36.75;25.34;94854.84;4996790;28;20175;-79
2022/07/24 10:55:49;;;;;;;11.60;6.20;;;;;;;36.69;25.59;94834.38;4995977;28;20602;-79
2022/07/24 10:58:15;;;;;;;10.00;6.47;;;;;;;36.88;25.42;94855.31;5013330;28;20165;-81
2022/07/24 11:00:49;;;;;;;10.55;5.43;;;;;;;36.93;25.35;94855.75;4995905;28;20172;-78
2022/07/24 11:03:19;;;;;;;14.35;6.80;;;;;;;36.98;24.77;94852.69;5013209;28;20180;-78
2022/07/24 11:06:08;;;;;;;9.45;6.05;;;;;;;36.89;24.29;94824.75;5013019;28;20259;-78
2022/07/24 11:08:41;;;;;;;9.50;6.20;;;;;;;37.17;24.12;94839.91;4995701;28;20183;-78
2022/07/24 11:11:09;;;;;;;9.77;4.97;;;;;;;37.03;23.41;94826.81;5013693;28;20335;-79
2022/07/24 11:13:37;;;;;;;17.08;6.68;;;;;;;37.09;23.64;94838.25;5008414;28;20275;-78
2022/07/24 11:16:15;;;;;;;11.35;6.53;;;;;;;36.84;23.56;94841.56;4994317;28;20577;-78
2022/07/24 11:19:02;;;;;;;13.50;5.07;;;;;;;36.67;24.88;94834.72;5012750;28;20188;-78
2022/07/24 11:21:32;;;;;;;16.30;6.32;;;;;;;36.26;24.04;94835.84;4985048;28;20323;-78
2022/07/24 11:24:19;;;;;;;9.30;5.78;;;;;;;36.21;25.36;94836.19;5012977;28;20287;-78
2022/07/24 11:26:50;;;;;;;14.13;6.40;;;;;;;36.36;25.05;94837.13;5012870;28;20239;-79